Time;durP1;ratioP1;P1;durP2;ratioP2;P2;SDS_P1;SDS_P2;PMS_P1;PMS_P2;Temp;Humidity;BMP_temperature;BMP_pressure;BME280_temperature;BME280_humidity;BME280_pressure;Samples;Min_cycle;Max_cycle;Signal;HPM_P1;HPM_P2
2023/03/09 00:02:26;;;;;;;12.40;9.23;;;0.60;99.90;;;;;;5088433;28;20547;-78
2023/03/09 00:04:54;;;;;;;12.05;8.18;;;0.70;99.90;;;;;;5057256;28;20045;-78
2023/03/09 00:07:22;;;;;;;12.68;8.40;;;0.60;99.90;;;;;;5095173;28;20134;-78
2023/03/09 00:09:50;;;;;;;16.08;9.02;;;0.60;99.90;;;;;;5114286;28;20058;-78
2023/03/09 00:12:17;;;;;;;10.32;6.97;;;0.60;99.90;;;;;;5086718;28;20143;-77
2023/03/09 00:14:45;;;;;;;10.73;8.32;;;0.60;99.90;;;;;;5055444;28;20048;-77
2023/03/09 00:17:12;;;;;;;12.65;8.30;;;0.70;99.90;;;;;;5057198;28;20490;-78
2023/03/09 00:19:39;;;;;;;13.52;8.60;;;0.70;99.90;;;;;;5093328;28;20139;-78
2023/03/09 00:22:07;;;;;;;14.10;9.13;;;0.60;99.90;;;;;;5075326;28;20074;-77
2023/03/09 00:24:36;;;;;;;15.13;8.85;;;0.60;99.90;;;;;;5084669;28;20036;-78
2023/03/09 00:27:04;;;;;;;11.55;8.30;;;0.60;99.90;;;;;;5093337;28;20401;-78
2023/03/09 00:29:32;;;;;;;15.10;8.70;;;0.60;99.90;;;;;;5077362;28;20424;-77
2023/03/09 00:32:00;;;;;;;11.88;7.32;;;0.60;99.90;;;;;;5055963;28;20059;-78
2023/03/09 00:34:27;;;;;;;12.15;8.75;;;0.70;99.90;;;;;;5067805;28;20135;-79
2023/03/09 00:36:55;;;;;;;13.15;7.55;;;0.60;99.90;;;;;;5075894;28;20513;-78
2023/03/09 00:39:25;;;;;;;11.77;7.38;;;0.60;99.90;;;;;;5074580;28;20050;-78
2023/03/09 00:41:54;;;;;;;11.35;7.93;;;0.50;99.90;;;;;;5092033;28;20056;-83
2023/03/09 00:44:21;;;;;;;11.73;7.15;;;0.50;99.90;;;;;;5091104;28;20082;-82
2023/03/09 00:46:49;;;;;;;11.05;6.72;;;0.50;99.90;;;;;;5073472;28;20074;-83
2023/03/09 00:49:16;;;;;;;12.25;7.43;;;0.50;99.90;;;;;;5092080;28;20118;-77
2023/03/09 00:51:44;;;;;;;8.25;5.93;;;0.40;99.90;;;;;;5060459;28;20073;-78
2023/03/09 00:54:13;;;;;;;10.82;6.78;;;0.40;99.90;;;;;;5051940;28;20040;-77
2023/03/09 00:56:42;;;;;;;7.35;5.95;;;0.30;99.90;;;;;;5049691;28;20036;-77
2023/03/09 00:59:11;;;;;;;10.82;6.18;;;0.30;99.90;;;;;;5090134;28;20265;-83
2023/03/09 01:01:39;;;;;;;10.10;6.32;;;0.30;99.90;;;;;;5074238;28;20132;-82
2023/03/09 01:04:08;;;;;;;10.15;6.43;;;0.40;99.90;;;;;;5062832;28;20044;-81
2023/03/09 01:06:37;;;;;;;8.77;5.45;;;0.30;99.90;;;;;;5073571;28;20455;-83
2023/03/09 01:09:09;;;;;;;8.02;6.40;;;0.40;99.90;;;;;;5039083;28;20040;-77
2023/03/09 01:11:38;;;;;;;7.95;6.20;;;0.30;99.90;;;;;;5075065;28;20056;-78
2023/03/09 01:14:06;;;;;;;7.20;5.30;;;0.30;99.90;;;;;;5063876;28;20072;-78
2023/03/09 01:16:35;;;;;;;11.15;5.35;;;0.30;99.90;;;;;;5068991;28;20078;-78
2023/03/09 01:19:02;;;;;;;7.85;5.45;;;0.20;99.90;;;;;;5073558;28;20048;-78
2023/03/09 01:21:30;;;;;;;8.23;5.03;;;0.10;99.90;;;;;;5089960;28;20043;-78
2023/03/09 01:23:58;;;;;;;7.13;4.43;;;0.10;99.90;;;;;;5040745;28;20430;-78
2023/03/09 01:26:28;;;;;;;6.57;4.75;;;0.00;99.90;;;;;;5090824;28;20055;-77
2023/03/09 01:28:56;;;;;;;6.07;4.63;;;-0.10;99.90;;;;;;5067199;28;20491;-77
2023/03/09 01:31:23;;;;;;;7.55;5.10;;;-0.10;99.90;;;;;;5037387;28;20409;-78
2023/03/09 01:33:52;;;;;;;7.50;5.30;;;-0.20;99.90;;;;;;5056096;28;20063;-78
2023/03/09 01:36:20;;;;;;;8.93;4.88;;;-0.30;99.90;;;;;;5085482;28;20068;-78
2023/03/09 01:38:49;;;;;;;8.63;4.88;;;-0.40;99.90;;;;;;5076205;28;20075;-77
2023/03/09 01:41:20;;;;;;;5.70;3.83;;;-0.50;99.90;;;;;;5049287;28;20493;-77
2023/03/09 01:43:49;;;;;;;5.03;3.53;;;-0.60;99.90;;;;;;5083209;28;20079;-78
2023/03/09 01:46:37;;;;;;;5.45;3.65;;;-0.80;99.90;;;;;;5070953;28;20055;-78
2023/03/09 01:49:32;;;;;;;4.80;3.20;;;-1.00;99.90;;;;;;5085045;28;20057;-76
2023/03/09 01:52:11;;;;;;;5.85;3.97;;;-1.20;99.90;;;;;;5051605;28;20051;-77
2023/03/09 01:54:46;;;;;;;5.13;3.08;;;-1.30;99.90;;;;;;5059723;28;20044;-77
2023/03/09 01:57:22;;;;;;;6.72;3.53;;;-1.50;99.90;;;;;;5071303;28;20048;-77
2023/03/09 01:59:53;;;;;;;4.57;3.20;;;-1.50;99.90;;;;;;5036866;28;20548;-77
2023/03/09 02:02:23;;;;;;;3.58;3.28;;;-1.60;99.90;;;;;;5071649;28;20110;-76
2023/03/09 02:04:58;;;;;;;4.50;2.85;;;-1.70;99.90;;;;;;5068859;28;20052;-77
2023/03/09 02:07:27;;;;;;;6.28;4.07;;;-1.90;99.90;;;;;;5083592;28;20041;-77
2023/03/09 02:10:01;;;;;;;5.05;3.78;;;-2.00;99.90;;;;;;5038340;28;20500;-78
2023/03/09 02:12:30;;;;;;;8.13;3.75;;;-2.00;99.90;;;;;;5072099;28;20059;-77
2023/03/09 02:14:58;;;;;;;5.88;3.65;;;-2.10;99.90;;;;;;5072225;28;20052;-78
2023/03/09 02:17:26;;;;;;;9.88;4.53;;;-2.20;99.90;;;;;;5089471;28;20044;-77
2023/03/09 02:20:11;;;;;;;8.68;3.88;;;-2.30;99.90;;;;;;5085236;28;20052;-77
2023/03/09 02:22:39;;;;;;;6.03;3.72;;;-2.40;99.90;;;;;;5083769;28;20135;-78
2023/03/09 02:25:19;;;;;;;5.40;3.60;;;-2.50;99.90;;;;;;5048357;28;20472;-77
2023/03/09 02:27:50;;;;;;;9.18;3.88;;;-2.60;99.90;;;;;;5089915;28;20052;-76
2023/03/09 02:30:19;;;;;;;8.15;4.28;;;-2.70;99.90;;;;;;5087262;28;20051;-76
2023/03/09 02:32:47;;;;;;;9.70;4.25;;;-2.80;99.90;;;;;;5055370;28;20415;-77
2023/03/09 02:35:15;;;;;;;4.80;3.45;;;-2.90;99.90;;;;;;5089291;28;20060;-77
2023/03/09 02:37:52;;;;;;;10.93;4.30;;;-2.90;99.90;;;;;;5072343;28;20090;-77
2023/03/09 02:40:30;;;;;;;12.63;3.95;;;-3.00;99.90;;;;;;5050369;28;20504;-77
2023/03/09 02:43:04;;;;;;;5.35;3.17;;;-3.00;99.90;;;;;;5050482;28;20389;-77
2023/03/09 02:45:34;;;;;;;7.03;3.63;;;-2.90;99.90;;;;;;5039365;28;20466;-77
2023/03/09 02:48:02;;;;;;;5.40;3.40;;;-3.00;99.90;;;;;;5040781;28;20048;-77
2023/03/09 02:50:30;;;;;;;6.55;3.75;;;-3.00;99.90;;;;;;5070355;28;20048;-78
2023/03/09 02:52:57;;;;;;;4.68;3.45;;;-3.10;99.90;;;;;;5080739;28;20496;-77
2023/03/09 02:55:25;;;;;;;5.45;3.40;;;-3.10;99.90;;;;;;5069601;28;20075;-77
2023/03/09 02:57:53;;;;;;;4.47;3.20;;;-3.20;99.90;;;;;;5071397;28;20436;-77
2023/03/09 03:00:23;;;;;;;3.90;2.55;;;-3.30;99.90;;;;;;5063015;28;20098;-82
2023/03/09 03:02:53;;;;;;;3.83;2.90;;;-3.40;99.90;;;;;;5036267;28;20144;-84
2023/03/09 03:05:21;;;;;;;4.38;2.80;;;-3.40;99.90;;;;;;5062439;28;20131;-84
2023/03/09 03:07:49;;;;;;;8.05;3.83;;;-3.40;99.90;;;;;;5067407;28;20056;-79
2023/03/09 03:10:17;;;;;;;7.35;3.05;;;-3.60;99.90;;;;;;5073224;28;20044;-83
2023/03/09 03:12:44;;;;;;;3.00;2.70;;;-3.70;99.90;;;;;;5068480;28;20051;-84
2023/03/09 03:15:13;;;;;;;5.78;2.33;;;-3.70;99.90;;;;;;5074616;28;20052;-84
2023/03/09 03:17:41;;;;;;;3.88;2.55;;;-3.70;99.90;;;;;;5076289;28;20044;-84
2023/03/09 03:20:14;;;;;;;4.72;2.80;;;-3.70;99.90;;;;;;5076014;28;20139;-79
2023/03/09 03:22:44;;;;;;;5.78;3.22;;;-3.80;99.90;;;;;;5057372;28;20044;-84
2023/03/09 03:25:13;;;;;;;6.38;2.78;;;-3.80;99.90;;;;;;5074449;28;20131;-83
2023/03/09 03:27:44;;;;;;;4.72;3.10;;;-3.90;99.90;;;;;;5068428;28;20139;-83
2023/03/09 03:30:14;;;;;;;4.28;2.22;;;-3.90;99.90;;;;;;5057271;28;20090;-82
2023/03/09 03:32:45;;;;;;;5.93;2.55;;;-3.90;99.90;;;;;;5067948;28;20044;-76
2023/03/09 03:35:16;;;;;;;4.22;2.70;;;-4.00;99.90;;;;;;5086322;28;20048;-76
2023/03/09 03:37:45;;;;;;;3.50;2.67;;;-4.00;99.90;;;;;;5077902;28;20534;-76
2023/03/09 03:40:14;;;;;;;3.72;2.40;;;-4.00;99.90;;;;;;5090653;28;20052;-75
2023/03/09 03:42:45;;;;;;;5.50;2.40;;;-4.00;99.90;;;;;;5061779;28;20070;-77
2023/03/09 03:45:14;;;;;;;5.85;2.67;;;-4.00;99.90;;;;;;5062997;28;20070;-77
2023/03/09 03:47:44;;;;;;;4.28;3.00;;;-4.00;99.90;;;;;;5066957;28;20587;-76
2023/03/09 03:50:12;;;;;;;4.60;3.15;;;-4.00;99.90;;;;;;5078419;28;20142;-77
2023/03/09 03:52:48;;;;;;;6.38;3.72;;;-4.10;99.90;;;;;;5075312;28;20361;-83
2023/03/09 03:55:16;;;;;;;5.03;2.58;;;-4.10;99.90;;;;;;5075748;28;20080;-82
2023/03/09 03:57:44;;;;;;;4.57;3.03;;;-4.20;99.90;;;;;;5073601;28;20059;-82
2023/03/09 04:00:13;;;;;;;10.77;2.85;;;-4.20;99.90;;;;;;5070835;28;20044;-82
2023/03/09 04:02:46;;;;;;;5.68;3.00;;;-4.20;99.90;;;;;;5057503;28;20086;-83
2023/03/09 04:05:20;;;;;;;5.18;3.22;;;-4.20;99.90;;;;;;5066221;28;20062;-82
2023/03/09 04:07:51;;;;;;;3.45;2.97;;;-4.20;99.90;;;;;;5076194;28;20148;-78
2023/03/09 04:10:19;;;;;;;6.55;3.75;;;-4.20;99.90;;;;;;5066937;28;20056;-78
2023/03/09 04:12:48;;;;;;;6.47;2.72;;;-4.30;99.90;;;;;;5080162;28;20314;-77
2023/03/09 04:15:16;;;;;;;6.63;3.30;;;-4.30;99.90;;;;;;5084108;28;20049;-78
2023/03/09 04:17:47;;;;;;;5.40;3.83;;;-4.30;99.90;;;;;;5080121;28;20408;-74
2023/03/09 04:20:15;;;;;;;4.80;2.45;;;-4.30;99.90;;;;;;5062302;28;20056;-75
2023/03/09 04:22:45;;;;;;;5.25;3.35;;;-4.30;99.90;;;;;;5071848;28;20063;-81
2023/03/09 04:25:16;;;;;;;3.30;2.28;;;-4.30;99.90;;;;;;5092719;28;20474;-79
2023/03/09 04:27:44;;;;;;;3.95;3.10;;;-4.30;99.90;;;;;;5088330;28;20055;-82
2023/03/09 04:30:22;;;;;;;4.95;3.53;;;-4.20;99.90;;;;;;5070510;28;20063;-82
2023/03/09 04:32:54;;;;;;;2.92;2.55;;;-4.20;99.90;;;;;;5054816;28;20052;-81
2023/03/09 04:35:21;;;;;;;5.97;2.72;;;-4.20;99.90;;;;;;5071189;28;20048;-81
2023/03/09 04:37:51;;;;;;;3.80;2.83;;;-4.20;99.90;;;;;;5092286;28;20133;-81
2023/03/09 04:40:20;;;;;;;3.45;2.67;;;-4.20;99.90;;;;;;5077356;28;20048;-79
2023/03/09 04:42:50;;;;;;;6.13;2.95;;;-4.30;99.90;;;;;;5065432;28;20140;-75
2023/03/09 04:45:29;;;;;;;3.53;2.55;;;-4.30;99.90;;;;;;5092768;28;20047;-75
2023/03/09 04:48:00;;;;;;;4.20;2.63;;;-4.30;99.90;;;;;;5070014;28;20052;-75
2023/03/09 04:50:28;;;;;;;4.18;3.08;;;-4.40;99.90;;;;;;5072089;28;20056;-75
2023/03/09 04:53:02;;;;;;;4.90;3.05;;;-4.40;99.90;;;;;;5082412;28;20484;-82
2023/03/09 04:55:33;;;;;;;;;;;-4.40;99.90;;;;;;5058406;28;20049;-81
2023/03/09 04:58:07;;;;;;;4.47;2.97;;;-4.30;99.90;;;;;;5071224;28;19928;-81
2023/03/09 05:00:37;;;;;;;5.13;2.97;;;-4.30;99.90;;;;;;5067746;28;20076;-82
2023/03/09 05:03:07;;;;;;;5.30;3.08;;;-4.20;99.90;;;;;;5067617;28;20048;-82
2023/03/09 05:05:36;;;;;;;4.85;2.80;;;-4.20;99.90;;;;;;5082010;28;20040;-83
2023/03/09 05:08:04;;;;;;;5.78;2.55;;;-4.20;99.90;;;;;;5069867;28;20052;-77
2023/03/09 05:10:31;;;;;;;4.72;2.58;;;-4.30;99.90;;;;;;5073638;28;20044;-87
2023/03/09 05:13:00;;;;;;;3.53;2.80;;;-4.30;99.90;;;;;;5093571;28;20565;-86
2023/03/09 05:15:30;;;;;;;6.90;3.80;;;-4.20;99.90;;;;;;5065906;28;20128;-78
2023/03/09 05:17:58;;;;;;;5.97;2.97;;;-4.20;99.90;;;;;;5073177;28;20338;-76
2023/03/09 05:20:31;;;;;;;4.03;2.63;;;-4.10;99.90;;;;;;5064931;28;20036;-77
2023/03/09 05:23:02;;;;;;;3.55;2.70;;;-4.10;99.90;;;;;;5068142;28;20135;-81
2023/03/09 05:25:31;;;;;;;3.78;2.95;;;-4.00;99.90;;;;;;5057298;28;20040;-82
2023/03/09 05:28:00;;;;;;;4.75;2.63;;;-3.90;99.90;;;;;;5072843;28;20416;-82
2023/03/09 05:30:32;;;;;;;3.53;2.47;;;-3.90;99.90;;;;;;5073485;28;20412;-83
2023/03/09 05:33:04;;;;;;;4.13;2.90;;;-3.80;99.90;;;;;;5073086;28;20051;-83
2023/03/09 05:35:35;;;;;;;5.18;3.20;;;-3.80;99.90;;;;;;5086351;28;20101;-82
2023/03/09 05:38:04;;;;;;;4.05;2.53;;;-3.70;99.90;;;;;;5071260;28;20044;-81
2023/03/09 05:40:32;;;;;;;4.65;2.88;;;-3.70;99.90;;;;;;5070024;28;20411;-80
2023/03/09 05:43:04;;;;;;;4.03;3.03;;;-3.70;99.90;;;;;;5077052;28;20136;-83
2023/03/09 05:45:33;;;;;;;4.85;2.83;;;-3.70;99.90;;;;;;5088600;28;20056;-83
2023/03/09 05:48:00;;;;;;;6.18;3.15;;;-3.80;99.90;;;;;;5071334;28;20054;-85
2023/03/09 05:50:35;;;;;;;6.47;2.97;;;-3.70;99.90;;;;;;5087717;28;20169;-79
2023/03/09 05:53:04;;;;;;;4.07;2.92;;;-3.70;99.90;;;;;;5056823;28;20101;-78
2023/03/09 05:55:32;;;;;;;6.93;3.30;;;-3.70;99.90;;;;;;5072459;28;20427;-80
2023/03/09 05:58:00;;;;;;;4.47;2.72;;;-3.70;99.90;;;;;;5083399;28;20052;-79
2023/03/09 06:00:29;;;;;;;2.58;2.35;;;-3.70;99.90;;;;;;5081075;28;20044;-80
2023/03/09 06:03:02;;;;;;;3.00;2.40;;;-3.60;99.90;;;;;;5056903;28;20081;-78
2023/03/09 06:05:41;;;;;;;8.73;2.80;;;-3.60;99.90;;;;;;5071350;28;20412;-80
2023/03/09 06:08:10;;;;;;;6.90;3.15;;;-3.50;99.90;;;;;;5082485;28;20087;-79
2023/03/09 06:10:38;;;;;;;4.30;3.03;;;-3.50;99.90;;;;;;5085506;28;20048;-81
2023/03/09 06:13:07;;;;;;;5.32;3.50;;;-3.50;99.90;;;;;;5064982;28;20040;-80
2023/03/09 06:15:38;;;;;;;3.95;3.10;;;-3.40;99.90;;;;;;5071710;28;20066;-79
2023/03/09 06:18:07;;;;;;;5.83;3.23;;;-3.20;99.90;;;;;;5064591;28;20047;-80
2023/03/09 06:20:35;;;;;;;4.63;3.47;;;-3.00;99.90;;;;;;5063466;28;20044;-80
2023/03/09 06:23:05;;;;;;;5.88;3.35;;;-2.90;99.90;;;;;;5067524;28;20055;-79
2023/03/09 06:25:33;;;;;;;4.30;3.35;;;-2.70;99.90;;;;;;5080343;28;20411;-79
2023/03/09 06:28:01;;;;;;;5.35;3.28;;;-2.60;99.90;;;;;;5082795;28;20059;-79
2023/03/09 06:30:34;;;;;;;5.35;3.00;;;-2.60;99.90;;;;;;5086001;28;20526;-79
2023/03/09 06:33:04;;;;;;;3.10;2.45;;;-2.70;99.90;;;;;;5067083;28;20384;-80
2023/03/09 06:35:36;;;;;;;4.63;3.08;;;-2.70;99.90;;;;;;5067001;28;20048;-79
2023/03/09 06:38:08;;;;;;;5.78;3.40;;;-2.70;99.90;;;;;;5064776;28;20580;-79
2023/03/09 06:40:36;;;;;;;7.97;3.65;;;-2.60;99.90;;;;;;5065873;28;20490;-78
2023/03/09 06:43:05;;;;;;;5.57;3.65;;;-2.30;99.90;;;;;;5061621;28;20533;-79
2023/03/09 06:45:32;;;;;;;4.55;3.60;;;-2.10;99.90;;;;;;5086081;28;20512;-80
2023/03/09 06:48:05;;;;;;;6.18;3.53;;;-1.90;99.90;;;;;;5052964;28;20146;-79
2023/03/09 06:50:36;;;;;;;6.10;3.50;;;-1.80;99.90;;;;;;5065561;28;20105;-86
2023/03/09 06:53:04;;;;;;;6.50;3.60;;;-1.80;99.90;;;;;;5083592;28;20051;-86
2023/03/09 06:55:33;;;;;;;5.95;3.70;;;-1.60;99.90;;;;;;5052784;28;20064;-85
2023/03/09 06:58:01;;;;;;;6.00;3.42;;;-1.50;99.90;;;;;;5069551;28;20117;-86
2023/03/09 07:00:29;;;;;;;10.80;4.30;;;-1.50;99.90;;;;;;5069051;28;20078;-86
2023/03/09 07:03:01;;;;;;;5.00;3.58;;;-1.40;99.90;;;;;;5069972;28;20095;-84
2023/03/09 07:05:29;;;;;;;4.32;3.13;;;-1.30;99.90;;;;;;5052957;28;20054;-80
2023/03/09 07:07:57;;;;;;;8.95;4.28;;;-1.30;99.90;;;;;;5070617;28;20135;-81
2023/03/09 07:10:24;;;;;;;4.85;3.15;;;-1.30;99.90;;;;;;5090887;28;20404;-80
2023/03/09 07:12:53;;;;;;;7.50;3.90;;;-1.50;99.90;;;;;;5094637;28;20075;-79
2023/03/09 07:15:21;;;;;;;5.13;3.80;;;-1.70;99.90;;;;;;5051860;28;20057;-77
2023/03/09 07:17:48;;;;;;;6.03;3.80;;;-1.80;99.90;;;;;;5025304;28;20056;-78
2023/03/09 07:20:16;;;;;;;8.43;3.60;;;-1.90;99.90;;;;;;5026900;28;20077;-79
2023/03/09 07:22:47;;;;;;;4.35;3.28;;;-2.00;99.90;;;;;;5044678;28;20084;-76
2023/03/09 07:25:16;;;;;;;6.53;3.45;;;-2.10;99.90;;;;;;5038485;28;20574;-78
2023/03/09 07:27:43;;;;;;;4.82;3.45;;;-2.10;99.90;;;;;;5018663;28;20265;-84
2023/03/09 07:30:13;;;;;;;4.97;3.63;;;-2.20;99.90;;;;;;5028311;28;20053;-83
2023/03/09 07:32:41;;;;;;;5.47;3.40;;;-2.30;99.90;;;;;;5018115;28;20052;-80
2023/03/09 07:35:09;;;;;;;5.75;2.42;;;-2.30;99.90;;;;;;5014519;28;20092;-88
2023/03/09 07:37:37;;;;;;;5.95;3.67;;;-2.30;99.90;;;;;;5017397;28;20045;-84
2023/03/09 07:40:06;;;;;;;5.07;3.15;;;-2.30;99.90;;;;;;5028943;28;20081;-80
2023/03/09 07:42:34;;;;;;;6.40;3.42;;;-2.30;99.90;;;;;;5015965;28;20049;-81
2023/03/09 07:45:17;;;;;;;4.03;3.30;;;-2.30;99.90;;;;;;5015038;28;20045;-80
2023/03/09 07:47:44;;;;;;;5.22;3.58;;;-2.50;99.90;;;;;;5027932;28;20513;-82
2023/03/09 07:50:12;;;;;;;4.35;3.08;;;-2.60;99.90;;;;;;5024660;28;20038;-85
2023/03/09 07:52:40;;;;;;;3.67;2.92;;;-2.70;99.90;;;;;;5022691;28;20057;-83
2023/03/09 07:55:10;;;;;;;9.63;3.53;;;-2.70;99.90;;;;;;5016352;28;20049;-84
2023/03/09 07:57:38;;;;;;;6.55;3.10;;;-2.70;99.90;;;;;;5030220;28;20410;-79
2023/03/09 08:00:12;;;;;;;4.95;2.83;;;-2.80;99.90;;;;;;5029717;28;20038;-81
2023/03/09 08:02:41;;;;;;;4.10;2.60;;;-2.80;99.90;;;;;;5029715;28;20498;-81
2023/03/09 08:05:11;;;;;;;6.03;2.97;;;-2.80;99.90;;;;;;5028730;28;20156;-78
2023/03/09 08:07:42;;;;;;;5.07;3.13;;;-2.80;99.90;;;;;;5032357;28;20042;-80
2023/03/09 08:10:11;;;;;;;5.10;3.45;;;-2.80;99.90;;;;;;5025938;28;20050;-82
2023/03/09 08:12:38;;;;;;;6.18;3.15;;;-2.70;99.90;;;;;;5021162;28;20084;-81
2023/03/09 08:15:07;;;;;;;5.80;3.05;;;-2.70;99.90;;;;;;5045421;28;20076;-81
2023/03/09 08:17:35;;;;;;;7.50;3.40;;;-2.70;99.90;;;;;;5031571;28;20073;-82
2023/03/09 08:20:08;;;;;;;5.82;3.50;;;-2.80;99.90;;;;;;5026721;28;20069;-80
2023/03/09 08:22:37;;;;;;;4.13;2.45;;;-2.70;99.90;;;;;;5018475;28;20049;-81
2023/03/09 08:25:06;;;;;;;4.22;2.80;;;-2.70;99.90;;;;;;5024600;28;20509;-81
2023/03/09 08:27:42;;;;;;;5.22;2.92;;;-2.70;99.90;;;;;;5030083;28;20053;-79
2023/03/09 08:30:13;;;;;;;5.70;3.22;;;-2.60;99.90;;;;;;5029243;28;20175;-78
2023/03/09 08:32:46;;;;;;;3.67;2.58;;;-2.40;99.90;;;;;;5029420;28;20506;-80
2023/03/09 08:35:15;;;;;;;4.25;2.88;;;-2.40;99.90;;;;;;5028856;28;20137;-80
2023/03/09 08:37:43;;;;;;;4.03;2.70;;;-2.40;99.90;;;;;;5030988;28;20042;-83
2023/03/09 08:40:12;;;;;;;4.20;3.03;;;-2.40;99.90;;;;;;5021412;28;20132;-82
2023/03/09 08:42:40;;;;;;;6.90;3.90;;;-2.40;99.90;;;;;;5028327;28;20057;-82
2023/03/09 08:45:10;;;;;;;4.32;2.97;;;-2.30;99.90;;;;;;5026440;28;20077;-82
2023/03/09 08:47:38;;;;;;;3.20;2.90;;;-2.20;99.90;;;;;;5031100;28;20085;-81
2023/03/09 08:50:07;;;;;;;3.45;2.97;;;-2.20;99.90;;;;;;5028460;28;20429;-79
2023/03/09 08:52:39;;;;;;;6.50;3.25;;;-2.20;99.90;;;;;;5025712;28;20045;-81
2023/03/09 08:55:11;;;;;;;5.45;2.75;;;-2.20;99.90;;;;;;5033070;28;20137;-81
2023/03/09 08:57:38;;;;;;;4.57;2.63;;;-2.30;99.90;;;;;;5028984;28;20603;-80
2023/03/09 09:00:10;;;;;;;3.72;2.92;;;-2.40;99.90;;;;;;5027608;28;20138;-80
2023/03/09 09:02:37;;;;;;;4.88;2.90;;;-2.40;99.90;;;;;;5030832;28;20420;-82
2023/03/09 09:05:06;;;;;;;5.18;3.15;;;-2.40;99.90;;;;;;5014721;28;20425;-81
2023/03/09 09:07:35;;;;;;;5.38;3.22;;;-2.30;99.90;;;;;;5020708;28;20146;-81
2023/03/09 09:10:04;;;;;;;5.47;3.40;;;-2.30;99.90;;;;;;5029299;28;20084;-82
2023/03/09 09:12:37;;;;;;;5.30;2.83;;;-2.30;99.90;;;;;;5031507;28;20084;-83
2023/03/09 09:15:08;;;;;;;5.72;3.30;;;-2.30;99.90;;;;;;5030266;28;20041;-80
2023/03/09 09:17:37;;;;;;;5.63;3.00;;;-2.30;99.90;;;;;;5028513;28;20055;-81
2023/03/09 09:20:06;;;;;;;4.78;2.92;;;-2.20;99.90;;;;;;5045236;28;20441;-82
2023/03/09 09:22:36;;;;;;;6.32;3.60;;;-2.20;99.90;;;;;;5028667;28;20545;-83
2023/03/09 09:25:08;;;;;;;7.43;3.22;;;-2.30;99.90;;;;;;5025600;28;20297;-81
2023/03/09 09:27:36;;;;;;;5.28;3.53;;;-2.40;99.90;;;;;;5020681;28;20081;-81
2023/03/09 09:30:04;;;;;;;5.43;3.58;;;-2.40;99.90;;;;;;5030363;28;20060;-81
2023/03/09 09:32:31;;;;;;;8.23;3.80;;;-2.30;99.90;;;;;;5032438;28;20532;-83
2023/03/09 09:35:00;;;;;;;11.27;3.80;;;-2.30;99.90;;;;;;5030015;28;20076;-83
2023/03/09 09:37:28;;;;;;;6.32;3.58;;;-2.10;99.90;;;;;;5031076;28;20095;-82
2023/03/09 09:39:58;;;;;;;7.72;3.30;;;-2.10;99.90;;;;;;5047643;28;20421;-80
2023/03/09 09:42:32;;;;;;;6.38;4.30;;;-2.00;99.90;;;;;;5032852;28;20049;-79
2023/03/09 09:45:02;;;;;;;4.65;3.20;;;-1.90;99.90;;;;;;4999337;28;20052;-82
2023/03/09 09:47:34;;;;;;;5.60;3.70;;;-1.90;99.90;;;;;;5030577;28;20077;-80
2023/03/09 09:50:03;;;;;;;9.27;4.68;;;-1.90;99.90;;;;;;5047349;28;20053;-81
2023/03/09 09:52:47;;;;;;;5.47;3.75;;;-1.90;99.90;;;;;;5029569;28;20045;-82
2023/03/09 09:55:23;;;;;;;5.93;3.38;;;-1.90;99.90;;;;;;5046429;28;20104;-82
2023/03/09 09:58:01;;;;;;;4.13;2.90;;;-1.90;99.90;;;;;;5046975;28;20053;-80
2023/03/09 10:00:36;;;;;;;3.88;2.72;;;-1.80;99.90;;;;;;5013983;28;20509;-82
2023/03/09 10:03:15;;;;;;;10.13;3.65;;;-1.70;99.90;;;;;;5031504;28;20145;-81
2023/03/09 10:05:49;;;;;;;4.88;2.80;;;-1.60;99.90;;;;;;5011590;28;20560;-84
2023/03/09 10:08:27;;;;;;;7.80;3.10;;;-1.70;99.90;;;;;;5010519;28;20064;-81
2023/03/09 10:11:03;;;;;;;7.90;3.50;;;-1.70;99.90;;;;;;5019628;28;20099;-81
2023/03/09 10:13:36;;;;;;;4.03;2.67;;;-1.70;99.90;;;;;;5030469;28;20049;-81
2023/03/09 10:16:10;;;;;;;5.38;2.90;;;-1.70;99.90;;;;;;5029985;28;20077;-82
2023/03/09 10:18:43;;;;;;;8.07;3.42;;;-1.60;99.90;;;;;;5013980;28;20103;-82
2023/03/09 10:21:19;;;;;;;7.38;3.85;;;-1.60;99.90;;;;;;5012209;28;20042;-82
2023/03/09 10:23:48;;;;;;;4.82;3.20;;;-1.50;99.90;;;;;;5011830;28;20506;-82
2023/03/09 10:26:37;;;;;;;5.80;3.45;;;-1.50;99.90;;;;;;5010178;28;20128;-82
2023/03/09 10:29:16;;;;;;;3.88;3.47;;;-1.50;99.90;;;;;;5019988;28;20095;-82
2023/03/09 10:31:53;;;;;;;4.32;2.97;;;-1.60;99.90;;;;;;5030556;28;20053;-81
2023/03/09 10:34:25;;;;;;;6.03;3.38;;;-1.70;99.90;;;;;;5046785;28;20045;-82
2023/03/09 10:37:04;;;;;;;4.18;3.10;;;-1.70;99.90;;;;;;5031272;28;20468;-82
2023/03/09 10:39:41;;;;;;;6.53;3.13;;;-1.80;99.90;;;;;;5015754;28;20057;-82
2023/03/09 10:42:21;;;;;;;4.45;2.92;;;-1.80;99.90;;;;;;5009867;28;20053;-81
2023/03/09 10:45:07;;;;;;;11.13;3.38;;;-1.90;99.90;;;;;;5021421;28;20099;-82
2023/03/09 10:48:06;;;;;;;6.70;4.10;;;-1.80;99.90;;;;;;5026813;28;20132;-78
2023/03/09 10:50:40;;;;;;;6.72;4.15;;;-1.60;99.90;;;;;;5042705;28;20119;-83
2023/03/09 10:53:38;;;;;;;4.63;3.40;;;-1.50;99.90;;;;;;5023774;28;20050;-81
2023/03/09 10:56:14;;;;;;;8.30;3.45;;;-1.30;99.90;;;;;;5036788;28;20099;-76
2023/03/09 10:58:43;;;;;;;5.63;3.55;;;-1.10;99.90;;;;;;5020791;28;20045;-75
2023/03/09 11:01:23;;;;;;;6.97;3.70;;;-1.00;99.90;;;;;;5027682;28;20053;-80
2023/03/09 11:03:51;;;;;;;5.53;3.65;;;-1.00;99.90;;;;;;5028166;28;20055;-78
2023/03/09 11:06:28;;;;;;;8.93;3.97;;;-1.00;99.90;;;;;;5028744;28;20168;-76
2023/03/09 11:09:06;;;;;;;8.73;4.15;;;-1.10;99.90;;;;;;5026092;28;20140;-77
2023/03/09 11:11:34;;;;;;;7.50;4.47;;;-1.20;99.90;;;;;;5027778;28;20049;-77
2023/03/09 11:14:04;;;;;;;4.22;3.00;;;-1.20;99.90;;;;;;5019696;28;20404;-76
2023/03/09 11:16:34;;;;;;;6.55;3.50;;;-1.20;99.90;;;;;;5014838;28;20494;-76
2023/03/09 11:19:11;;;;;;;3.53;3.22;;;-1.10;99.90;;;;;;5024075;28;20129;-76
2023/03/09 11:21:44;;;;;;;3.63;2.35;;;-1.00;99.90;;;;;;5022146;28;20055;-75
2023/03/09 11:24:15;;;;;;;4.65;3.40;;;-0.80;99.90;;;;;;5045460;28;20080;-75
2023/03/09 11:26:48;;;;;;;4.13;3.38;;;-0.60;99.90;;;;;;5031870;28;20045;-75
2023/03/09 11:29:29;;;;;;;3.93;2.90;;;-0.40;99.90;;;;;;5027467;28;20054;-75
2023/03/09 11:31:57;;;;;;;7.60;3.78;;;0.00;99.90;;;;;;5017410;28;20535;-77
2023/03/09 11:34:29;;;;;;;6.03;3.40;;;0.40;99.90;;;;;;5028236;28;20045;-77
2023/03/09 11:37:03;;;;;;;3.95;3.20;;;0.60;99.90;;;;;;5026587;28;20041;-77
2023/03/09 11:39:35;;;;;;;4.30;3.00;;;0.60;99.90;;;;;;5030212;28;20049;-80
2023/03/09 11:42:10;;;;;;;4.47;3.28;;;0.40;99.90;;;;;;5032154;28;20049;-79
2023/03/09 11:44:43;;;;;;;4.72;3.42;;;0.30;99.90;;;;;;5029105;28;20057;-81
2023/03/09 11:47:26;;;;;;;3.67;3.08;;;0.20;99.90;;;;;;5026642;28;20049;-85
2023/03/09 11:49:55;;;;;;;;;;;0.10;99.90;;;;;;5022444;28;20226;-84
2023/03/09 11:52:31;;;;;;;3.80;2.97;;;0.00;99.90;;;;;;5025058;28;20316;-80
2023/03/09 11:55:04;;;;;;;3.90;2.75;;;-0.10;99.90;;;;;;5031406;28;20064;-83
2023/03/09 11:57:34;;;;;;;6.10;2.92;;;-0.20;99.90;;;;;;5030119;28;20042;-83
2023/03/09 12:00:12;;;;;;;2.97;2.40;;;-0.20;99.90;;;;;;5020819;28;20531;-79
2023/03/09 12:02:53;;;;;;;5.28;2.33;;;-0.20;99.90;;;;;;5030878;28;20145;-82
2023/03/09 12:05:21;;;;;;;3.60;3.10;;;-0.20;99.90;;;;;;5024462;28;20196;-80
2023/03/09 12:07:54;;;;;;;4.57;3.45;;;-0.20;99.90;;;;;;5025872;28;20061;-82
2023/03/09 12:10:28;;;;;;;9.25;4.32;;;-0.30;99.90;;;;;;5027837;28;20065;-82
2023/03/09 12:13:05;;;;;;;6.38;4.03;;;-0.30;99.90;;;;;;5032116;28;20522;-81
2023/03/09 12:15:46;;;;;;;5.40;3.95;;;-0.20;99.90;;;;;;5023834;28;20065;-83
2023/03/09 12:18:21;;;;;;;5.32;3.47;;;-0.10;99.90;;;;;;5024568;28;20158;-81
2023/03/09 12:20:57;;;;;;;5.53;3.25;;;0.00;99.90;;;;;;5027145;28;20049;-82
2023/03/09 12:23:50;;;;;;;5.88;3.47;;;-0.20;99.90;;;;;;5032613;28;20050;-81
2023/03/09 12:26:33;;;;;;;4.10;3.40;;;-0.50;99.90;;;;;;5024930;28;20239;-79
2023/03/09 12:29:17;;;;;;;7.25;3.88;;;-0.60;99.90;;;;;;5023660;28;20509;-78
2023/03/09 12:32:41;;;;;;;4.90;3.10;;;-0.60;99.90;;;;;;5030018;28;20099;-80
2023/03/09 12:35:49;;;;;;;7.30;3.15;;;-0.80;99.90;;;;;;5017969;28;20092;-79
2023/03/09 12:38:21;;;;;;;5.65;3.75;;;-0.80;99.90;;;;;;5027894;28;20274;-83
2023/03/09 12:40:51;;;;;;;4.53;3.30;;;-1.00;99.90;;;;;;5018021;28;20486;-85
2023/03/09 12:43:51;;;;;;;8.55;3.22;;;-1.10;99.90;;;;;;5028335;28;20058;-81
2023/03/09 12:47:18;;;;;;;4.47;2.80;;;-1.20;99.90;;;;;;5040838;28;20156;-79
2023/03/09 12:49:49;;;;;;;4.57;3.30;;;-1.40;99.90;;;;;;5030294;28;20055;-78
2023/03/09 12:52:44;;;;;;;7.28;3.58;;;-1.50;99.90;;;;;;5021307;28;20050;-81
2023/03/09 12:55:19;;;;;;;5.60;3.45;;;-1.50;99.90;;;;;;5031213;28;20049;-82
2023/03/09 12:57:49;;;;;;;4.28;3.42;;;-1.50;99.90;;;;;;5016724;28;20057;-81
2023/03/09 13:00:31;;;;;;;4.03;3.08;;;-1.50;99.90;;;;;;5014160;28;20080;-81
2023/03/09 13:03:14;;;;;;;5.03;3.20;;;-1.50;99.90;;;;;;5024371;28;20053;-82
2023/03/09 13:05:49;;;;;;;3.38;2.47;;;-1.30;99.90;;;;;;5030413;28;20045;-80
2023/03/09 13:08:30;;;;;;;4.50;2.13;;;-1.10;99.90;;;;;;5029403;28;20076;-78
2023/03/09 13:11:31;;;;;;;3.47;2.92;;;-1.00;99.90;;;;;;5025675;28;20476;-79
2023/03/09 13:14:00;;;;;;;2.70;2.38;;;-1.00;99.90;;;;;;5029624;28;20053;-80